VLG6865 LICC-LIRQ
Flight info
| Callsign | VLG6865 |
|---|---|
| Flight time | N/A |
| Altitude | 34000 |
| Route | BUDIN DCT MALOG DCT GIKIN DCT SOVAN DCT AMTEL/N0354F180 L995 IBRID |
| Aircraft | A319/M-SDFGHILORVWXY/LB1 |
Departure
| Time | N/A |
|---|---|
| Airport | Catania-Fontanarossa Airport (LICC) |
Arrival
| Time | 2026-04-24 19:36 |
|---|---|
| Airport | Florence Airport, Peretola (LIRQ) |
| Time | Latitude | Longitude | Altitude | Speed | Heading |
|---|---|---|---|---|---|
| 2026-04-24 18:54 | 40.55889 | 13.56678 | 38083 ft | 429 kts | 334° |
| 2026-04-24 18:55 | 40.63763 | 13.51108 | 38084 ft | 430 kts | 335° |
| 2026-04-24 18:56 | 40.69004 | 13.47382 | 38082 ft | 430 kts | 335° |
| 2026-04-24 18:56 | 40.74250 | 13.43637 | 38088 ft | 430 kts | 335° |
| 2026-04-24 18:57 | 40.79487 | 13.39892 | 38085 ft | 430 kts | 335° |
| 2026-04-24 18:57 | 40.84742 | 13.36124 | 38084 ft | 430 kts | 335° |
| 2026-04-24 18:58 | 40.90009 | 13.32324 | 38086 ft | 431 kts | 334° |
| 2026-04-24 18:58 | 40.95254 | 13.28523 | 38087 ft | 432 kts | 334° |
| 2026-04-24 18:59 | 41.00505 | 13.24724 | 38087 ft | 431 kts | 334° |
| 2026-04-24 18:59 | 41.05740 | 13.20939 | 38090 ft | 431 kts | 334° |
| 2026-04-24 19:00 | 41.11010 | 13.17125 | 38094 ft | 431 kts | 334° |
| 2026-04-24 19:00 | 41.16245 | 13.13347 | 38092 ft | 430 kts | 334° |
| 2026-04-24 19:01 | 41.21514 | 13.09532 | 38090 ft | 431 kts | 334° |
| 2026-04-24 19:01 | 41.26757 | 13.05720 | 38093 ft | 432 kts | 334° |
| 2026-04-24 19:02 | 41.31137 | 13.02527 | 38086 ft | 431 kts | 334° |
| 2026-04-24 19:02 | 41.37300 | 12.98027 | 38093 ft | 432 kts | 334° |
| 2026-04-24 19:03 | 41.42537 | 12.94197 | 38090 ft | 432 kts | 334° |
| 2026-04-24 19:03 | 41.47816 | 12.90326 | 38090 ft | 431 kts | 334° |
| 2026-04-24 19:04 | 41.53033 | 12.86493 | 38097 ft | 431 kts | 334° |
| 2026-04-24 19:04 | 41.58311 | 12.82609 | 38103 ft | 431 kts | 335° |
| 2026-04-24 19:04 | 41.60938 | 12.80672 | 38265 ft | 432 kts | 335° |
| 2026-04-24 19:05 | 41.63547 | 12.78747 | 38166 ft | 431 kts | 335° |
| 2026-04-24 19:05 | 41.68798 | 12.74870 | 38122 ft | 431 kts | 335° |
| 2026-04-24 19:06 | 41.74037 | 12.70993 | 38119 ft | 431 kts | 335° |
| 2026-04-24 19:06 | 41.79267 | 12.67114 | 38114 ft | 431 kts | 335° |
| 2026-04-24 19:07 | 41.84526 | 12.63208 | 38102 ft | 430 kts | 335° |
| 2026-04-24 19:07 | 41.88893 | 12.59959 | 38106 ft | 431 kts | 335° |
| 2026-04-24 19:08 | 41.94990 | 12.55413 | 38103 ft | 431 kts | 335° |
| 2026-04-24 19:08 | 42.00247 | 12.51487 | 38102 ft | 431 kts | 335° |
| 2026-04-24 19:09 | 42.05475 | 12.47574 | 38099 ft | 432 kts | 335° |
| 2026-04-24 19:09 | 42.10680 | 12.43667 | 37925 ft | 426 kts | 335° |
| 2026-04-24 19:09 | 42.13264 | 12.41732 | 37387 ft | 425 kts | 335° |
| 2026-04-24 19:10 | 42.15857 | 12.39794 | 36784 ft | 424 kts | 335° |
| 2026-04-24 19:10 | 42.18397 | 12.37889 | 36260 ft | 422 kts | 335° |
| 2026-04-24 19:10 | 42.20958 | 12.35962 | 35640 ft | 422 kts | 336° |
| 2026-04-24 19:10 | 42.23515 | 12.34034 | 34926 ft | 424 kts | 335° |
| 2026-04-24 19:11 | 42.26081 | 12.32086 | 34149 ft | 427 kts | 335° |
| 2026-04-24 19:11 | 42.28669 | 12.30123 | 33354 ft | 431 kts | 335° |
| 2026-04-24 19:11 | 42.31294 | 12.28135 | 32547 ft | 435 kts | 335° |
| 2026-04-24 19:11 | 42.33919 | 12.26148 | 31747 ft | 438 kts | 334° |
| 2026-04-24 19:12 | 42.36590 | 12.24126 | 30920 ft | 442 kts | 334° |
| 2026-04-24 19:12 | 42.39265 | 12.22095 | 30178 ft | 442 kts | 334° |
| 2026-04-24 19:12 | 42.41940 | 12.20062 | 29620 ft | 437 kts | 334° |
| 2026-04-24 19:12 | 42.44561 | 12.18066 | 29052 ft | 433 kts | 334° |
| 2026-04-24 19:13 | 42.46296 | 12.16745 | 28662 ft | 430 kts | 334° |
| 2026-04-24 19:13 | 42.49733 | 12.14127 | 27876 ft | 425 kts | 334° |
| 2026-04-24 19:13 | 42.52296 | 12.12176 | 27278 ft | 422 kts | 334° |
| 2026-04-24 19:13 | 42.54827 | 12.10247 | 26688 ft | 418 kts | 334° |
| 2026-04-24 19:14 | 42.57347 | 12.08325 | 26118 ft | 414 kts | 334° |
| 2026-04-24 19:14 | 42.59837 | 12.06422 | 25548 ft | 411 kts | 334° |
| 2026-04-24 19:14 | 42.62323 | 12.04527 | 24977 ft | 407 kts | 334° |
| 2026-04-24 19:14 | 42.64794 | 12.02716 | 24421 ft | 403 kts | 335° |
| 2026-04-24 19:15 | 42.67261 | 12.00942 | 23867 ft | 399 kts | 335° |
| 2026-04-24 19:15 | 42.69706 | 11.99184 | 23315 ft | 396 kts | 335° |
| 2026-04-24 19:15 | 42.72143 | 11.97425 | 22769 ft | 393 kts | 335° |
| 2026-04-24 19:15 | 42.74524 | 11.95704 | 22255 ft | 390 kts | 335° |
| 2026-04-24 19:16 | 42.79259 | 11.92267 | 21258 ft | 382 kts | 335° |
| 2026-04-24 19:16 | 42.81597 | 11.90568 | 20765 ft | 379 kts | 335° |
| 2026-04-24 19:16 | 42.83887 | 11.88901 | 20280 ft | 375 kts | 335° |
| 2026-04-24 19:17 | 42.86174 | 11.87231 | 19782 ft | 372 kts | 335° |
| 2026-04-24 19:17 | 42.88437 | 11.85580 | 19305 ft | 369 kts | 335° |
| 2026-04-24 19:17 | 42.90698 | 11.83928 | 18834 ft | 366 kts | 335° |
| 2026-04-24 19:17 | 42.92919 | 11.82302 | 18381 ft | 363 kts | 335° |
| 2026-04-24 19:18 | 42.95145 | 11.80672 | 17933 ft | 359 kts | 335° |
| 2026-04-24 19:18 | 42.97329 | 11.79072 | 17480 ft | 356 kts | 335° |
| 2026-04-24 19:18 | 42.99510 | 11.77474 | 17021 ft | 353 kts | 334° |
| 2026-04-24 19:18 | 43.01669 | 11.75892 | 16567 ft | 351 kts | 334° |
| 2026-04-24 19:19 | 43.03800 | 11.74327 | 16115 ft | 348 kts | 334° |
| 2026-04-24 19:19 | 43.05918 | 11.72770 | 15671 ft | 346 kts | 334° |
| 2026-04-24 19:19 | 43.08023 | 11.71223 | 15245 ft | 343 kts | 335° |
| 2026-04-24 19:19 | 43.10116 | 11.69685 | 14810 ft | 341 kts | 334° |
| 2026-04-24 19:20 | 43.12218 | 11.68144 | 14353 ft | 339 kts | 334° |
| 2026-04-24 19:20 | 43.14266 | 11.66643 | 13896 ft | 336 kts | 334° |
| 2026-04-24 19:20 | 43.16341 | 11.65117 | 13434 ft | 334 kts | 334° |
| 2026-04-24 19:20 | 43.18364 | 11.63627 | 12994 ft | 332 kts | 334° |
| 2026-04-24 19:21 | 43.20387 | 11.62132 | 12649 ft | 326 kts | 334° |
| 2026-04-24 19:21 | 43.22380 | 11.60659 | 12117 ft | 326 kts | 334° |
| 2026-04-24 19:21 | 43.24346 | 11.59209 | 11844 ft | 318 kts | 334° |
| 2026-04-24 19:21 | 43.26246 | 11.57802 | 11660 ft | 307 kts | 334° |
| 2026-04-24 19:22 | 43.27487 | 11.56884 | 11539 ft | 300 kts | 334° |
| 2026-04-24 19:22 | 43.29899 | 11.55100 | 11200 ft | 291 kts | 334° |
| 2026-04-24 19:22 | 43.31660 | 11.53796 | 11103 ft | 290 kts | 334° |
| 2026-04-24 19:22 | 43.33455 | 11.52468 | 11097 ft | 291 kts | 334° |
| 2026-04-24 19:23 | 43.35219 | 11.51161 | 11088 ft | 291 kts | 334° |
| 2026-04-24 19:23 | 43.36999 | 11.49839 | 11088 ft | 291 kts | 334° |
| 2026-04-24 19:23 | 43.38790 | 11.48507 | 11090 ft | 291 kts | 334° |
| 2026-04-24 19:23 | 43.40567 | 11.47186 | 11090 ft | 291 kts | 334° |
| 2026-04-24 19:24 | 43.42336 | 11.45869 | 10965 ft | 286 kts | 334° |
| 2026-04-24 19:24 | 43.44082 | 11.44570 | 10535 ft | 287 kts | 334° |
| 2026-04-24 19:24 | 43.45829 | 11.43258 | 10122 ft | 287 kts | 332° |
| 2026-04-24 19:24 | 43.47475 | 11.41753 | 9740 ft | 286 kts | 324° |
| 2026-04-24 19:25 | 43.48969 | 11.39946 | 9362 ft | 285 kts | 316° |
| 2026-04-24 19:25 | 43.50312 | 11.37937 | 8987 ft | 284 kts | 314° |
| 2026-04-24 19:25 | 43.51615 | 11.35894 | 8610 ft | 282 kts | 313° |
| 2026-04-24 19:25 | 43.52911 | 11.33852 | 8244 ft | 280 kts | 312° |
| 2026-04-24 19:26 | 43.54178 | 11.31851 | 7945 ft | 276 kts | 312° |
| 2026-04-24 19:26 | 43.55430 | 11.29881 | 7551 ft | 276 kts | 312° |
| 2026-04-24 19:26 | 43.56696 | 11.27893 | 7165 ft | 275 kts | 312° |
| 2026-04-24 19:26 | 43.57957 | 11.25918 | 6796 ft | 273 kts | 312° |
| 2026-04-24 19:27 | 43.59215 | 11.23947 | 6429 ft | 272 kts | 312° |
| 2026-04-24 19:27 | 43.60453 | 11.22009 | 6150 ft | 266 kts | 312° |
| 2026-04-24 19:27 | 43.61656 | 11.20126 | 5989 ft | 257 kts | 312° |
| 2026-04-24 19:27 | 43.62817 | 11.18295 | 5825 ft | 249 kts | 309° |
| 2026-04-24 19:28 | 43.63525 | 11.16184 | 5643 ft | 243 kts | 276° |
| 2026-04-24 19:28 | 43.63237 | 11.13951 | 5516 ft | 235 kts | 243° |
| 2026-04-24 19:28 | 43.62249 | 11.12175 | 5362 ft | 229 kts | 228° |
| 2026-04-24 19:28 | 43.61173 | 11.10597 | 5076 ft | 229 kts | 227° |
| 2026-04-24 19:29 | 43.59851 | 11.06819 | 4467 ft | 225 kts | 283° |
| 2026-04-24 19:29 | 43.60560 | 11.04966 | 4244 ft | 217 kts | 316° |
| 2026-04-24 19:29 | 43.61685 | 11.03612 | 4118 ft | 209 kts | 320° |
| 2026-04-24 19:30 | 43.62759 | 11.02359 | 4018 ft | 198 kts | 319° |
| 2026-04-24 19:30 | 43.63761 | 11.01164 | 3929 ft | 185 kts | 318° |
| 2026-04-24 19:30 | 43.64715 | 11.00008 | 3752 ft | 177 kts | 317° |
| 2026-04-24 19:30 | 43.65623 | 10.98898 | 3577 ft | 169 kts | 318° |
| 2026-04-24 19:31 | 43.66621 | 10.98193 | 3385 ft | 162 kts | 358° |
| 2026-04-24 19:31 | 43.67587 | 10.98815 | 3215 ft | 153 kts | 49° |
| 2026-04-24 19:31 | 43.68169 | 11.00017 | 3057 ft | 154 kts | 58° |
| 2026-04-24 19:31 | 43.68753 | 11.01288 | 3028 ft | 159 kts | 55° |
| 2026-04-24 19:32 | 43.69424 | 11.02533 | 3030 ft | 160 kts | 51° |
| 2026-04-24 19:32 | 43.70141 | 11.03703 | 3022 ft | 160 kts | 48° |
| 2026-04-24 19:32 | 43.70891 | 11.04870 | 2909 ft | 161 kts | 47° |
| 2026-04-24 19:32 | 43.71635 | 11.06015 | 2701 ft | 159 kts | 47° |
| 2026-04-24 19:33 | 43.72374 | 11.07154 | 2481 ft | 155 kts | 48° |
| 2026-04-24 19:33 | 43.73076 | 11.08238 | 2272 ft | 150 kts | 48° |
| 2026-04-24 19:33 | 43.73774 | 11.09318 | 2079 ft | 150 kts | 48° |
| 2026-04-24 19:33 | 43.74461 | 11.10382 | 1917 ft | 144 kts | 48° |
| 2026-04-24 19:34 | 43.75094 | 11.11361 | 1704 ft | 133 kts | 49° |
| 2026-04-24 19:34 | 43.75707 | 11.12310 | 1530 ft | 132 kts | 49° |
| 2026-04-24 19:34 | 43.76325 | 11.13266 | 1354 ft | 132 kts | 48° |
| 2026-04-24 19:34 | 43.76939 | 11.14209 | 1186 ft | 132 kts | 48° |
| 2026-04-24 19:35 | 43.77549 | 11.15152 | 1025 ft | 133 kts | 49° |
| 2026-04-24 19:35 | 43.78168 | 11.16122 | 857 ft | 133 kts | 49° |
| 2026-04-24 19:35 | 43.78779 | 11.17071 | 683 ft | 133 kts | 48° |
| 2026-04-24 19:35 | 43.79404 | 11.18025 | 503 ft | 133 kts | 47° |
| 2026-04-24 19:36 | 43.80020 | 11.18978 | 324 ft | 133 kts | 48° |
| 2026-04-24 19:36 | 43.80633 | 11.19932 | 152 ft | 133 kts | 48° |
| 2026-04-24 19:36 | 43.81164 | 11.20756 | 138 ft | 76 kts | 47° |
| 2026-04-24 19:36 | 43.81402 | 11.21122 | 141 ft | 42 kts | 47° |
| 2026-04-24 19:37 | 43.81477 | 11.21275 | 140 ft | 13 kts | 70° |
| 2026-04-24 19:37 | 43.81527 | 11.21324 | 141 ft | 4 kts | 304° |
| 2026-04-24 19:37 | 43.81504 | 11.21276 | 141 ft | 8 kts | 226° |
| 2026-04-24 19:37 | 43.81451 | 11.21196 | 140 ft | 14 kts | 228° |
| 2026-04-24 19:38 | 43.81369 | 11.21070 | 140 ft | 19 kts | 227° |
| 2026-04-24 19:38 | 43.81273 | 11.20920 | 139 ft | 22 kts | 228° |
| 2026-04-24 19:38 | 43.81157 | 11.20743 | 137 ft | 26 kts | 228° |
| 2026-04-24 19:38 | 43.81028 | 11.20541 | 135 ft | 29 kts | 228° |
| 2026-04-24 19:39 | 43.80889 | 11.20326 | 133 ft | 29 kts | 228° |
| 2026-04-24 19:39 | 43.80757 | 11.20125 | 133 ft | 28 kts | 227° |
| 2026-04-24 19:39 | 43.80611 | 11.20011 | 133 ft | 18 kts | 193° |
| 2026-04-24 19:39 | 43.80494 | 11.19971 | 134 ft | 16 kts | 193° |
| 2026-04-24 19:40 | 43.80406 | 11.19933 | 136 ft | 7 kts | 199° |
| 2026-04-24 19:40 | 43.80358 | 11.19957 | 136 ft | 7 kts | 152° |
| 2026-04-24 19:40 | 43.80302 | 11.19963 | 135 ft | 8 kts | 181° |
| 2026-04-24 19:40 | 43.80292 | 11.19963 | 135 ft | 0 kts | 180° |